Time;durP1;ratioP1;P1;durP2;ratioP2;P2;SDS_P1;SDS_P2;PMS_P1;PMS_P2;Temp;Humidity;BMP_temperature;BMP_pressure;BME280_temperature;BME280_humidity;BME280_pressure;Samples;Min_cycle;Max_cycle;Signal;HPM_P1;HPM_P2
2023/08/27 00:00:46;;;;;;;19.20;12.30;;;;;;;;;;5037718;28;20029;-66
2023/08/27 00:03:11;;;;;;;17.93;12.80;;;;;;;;;;5035380;28;20550;-66
2023/08/27 00:05:42;;;;;;;17.07;12.13;;;;;;;;;;5035488;28;20377;-66
2023/08/27 00:08:08;;;;;;;19.83;12.10;;;;;;;;;;5033281;28;20021;-66
2023/08/27 00:10:33;;;;;;;22.30;12.97;;;;;;;;;;5041212;28;20108;-66
2023/08/27 00:12:58;;;;;;;17.40;12.23;;;;;;;;;;5037146;28;20032;-66
2023/08/27 00:15:23;;;;;;;16.27;11.77;;;;;;;;;;5035349;28;20021;-66
2023/08/27 00:17:49;;;;;;;16.47;11.27;;;;;;;;;;5034812;28;20108;-66
2023/08/27 00:20:14;;;;;;;19.03;10.63;;;;;;;;;;5035350;28;20052;-66
2023/08/27 00:22:39;;;;;;;16.00;10.47;;;;;;;;;;5035159;28;20028;-66
2023/08/27 00:25:05;;;;;;;14.80;10.40;;;;;;;;;;5035264;28;20477;-66
2023/08/27 00:27:30;;;;;;;15.50;10.40;;;;;;;;;;5043797;28;20575;-66
2023/08/27 00:29:55;;;;;;;13.77;9.87;;;;;;;;;;5048686;28;20010;-66
2023/08/27 00:32:20;;;;;;;12.87;9.97;;;;;;;;;;5031185;28;20013;-66
2023/08/27 00:34:46;;;;;;;13.20;9.70;;;;;;;;;;5036021;28;20021;-66
2023/08/27 00:37:11;;;;;;;14.63;10.23;;;;;;;;;;5042958;28;20365;-66
2023/08/27 00:39:36;;;;;;;14.70;10.50;;;;;;;;;;5050185;28;20023;-66
2023/08/27 00:42:04;;;;;;;15.90;10.83;;;;;;;;;;5036754;28;20018;-67
2023/08/27 00:44:29;;;;;;;15.33;11.00;;;;;;;;;;5053604;28;20044;-66
2023/08/27 00:46:54;;;;;;;16.47;11.30;;;;;;;;;;5039623;28;20486;-66
2023/08/27 00:49:20;;;;;;;16.53;11.53;;;;;;;;;;5034534;28;20477;-67
2023/08/27 00:51:46;;;;;;;15.03;10.80;;;;;;;;;;5024955;28;20017;-66
2023/08/27 00:54:11;;;;;;;16.43;11.17;;;;;;;;;;5050083;28;20531;-67
2023/08/27 00:56:37;;;;;;;17.50;10.87;;;;;;;;;;5045312;28;20021;-66
2023/08/27 00:59:02;;;;;;;13.03;10.67;;;;;;;;;;5052983;28;20385;-66
2023/08/27 01:04:30;;;;;;;12.43;9.17;;;;;;;;;;5040896;28;20053;-63
2023/08/27 01:06:58;;;;;;;11.67;9.40;;;;;;;;;;5033696;28;20037;-62
2023/08/27 01:09:37;;;;;;;14.30;9.40;;;;;;;;;;5033934;28;20079;-63
2023/08/27 01:12:04;;;;;;;12.03;9.00;;;;;;;;;;5034434;28;20435;-63
2023/08/27 01:14:32;;;;;;;14.07;9.50;;;;;;;;;;5039283;28;20108;-63
2023/08/27 01:16:58;;;;;;;11.10;8.50;;;;;;;;;;5044922;28;20020;-63
2023/08/27 01:19:23;;;;;;;10.63;8.23;;;;;;;;;;5048960;28;20380;-63
2023/08/27 01:21:48;;;;;;;10.63;8.43;;;;;;;;;;5049906;28;20021;-63
2023/08/27 01:24:13;;;;;;;12.63;7.50;;;;;;;;;;5034336;28;20104;-63
2023/08/27 01:26:44;;;;;;;9.13;7.57;;;;;;;;;;5033833;28;20021;-63
2023/08/27 01:29:12;;;;;;;11.80;7.80;;;;;;;;;;5041876;28;20052;-62
2023/08/27 01:31:40;;;;;;;9.73;7.23;;;;;;;;;;5036175;28;20021;-62
2023/08/27 01:34:08;;;;;;;10.50;7.30;;;;;;;;;;5043961;28;20514;-62
2023/08/27 01:36:35;;;;;;;10.93;7.53;;;;;;;;;;5040732;28;20018;-62
2023/08/27 01:39:00;;;;;;;10.77;7.60;;;;;;;;;;5045426;28;20024;-62
2023/08/27 01:41:26;;;;;;;10.60;7.87;;;;;;;;;;5050692;28;20017;-62
2023/08/27 01:43:51;;;;;;;11.20;7.57;;;;;;;;;;5033590;28;20025;-63
2023/08/27 01:46:16;;;;;;;11.53;8.20;;;;;;;;;;5033990;28;20033;-62
2023/08/27 01:48:41;;;;;;;12.87;8.83;;;;;;;;;;5047622;28;20056;-62
2023/08/27 01:51:07;;;;;;;12.27;8.63;;;;;;;;;;5047871;28;20017;-62
2023/08/27 01:53:32;;;;;;;11.97;9.03;;;;;;;;;;5032924;28;20351;-62
2023/08/27 01:55:58;;;;;;;13.63;9.83;;;;;;;;;;5036761;28;20351;-63
2023/08/27 01:58:23;;;;;;;14.97;10.07;;;;;;;;;;5045549;28;20466;-63
2023/08/27 02:00:49;;;;;;;17.27;10.37;;;;;;;;;;5033596;28;20028;-63
2023/08/27 02:03:15;;;;;;;17.30;11.40;;;;;;;;;;5033326;28;20087;-63
2023/08/27 02:05:40;;;;;;;15.93;12.23;;;;;;;;;;5038813;28;20017;-62
2023/08/27 02:08:05;;;;;;;15.40;11.40;;;;;;;;;;5035104;28;20018;-63
2023/08/27 02:10:31;;;;;;;21.30;11.90;;;;;;;;;;5045407;28;20079;-63
2023/08/27 02:12:56;;;;;;;15.50;11.57;;;;;;;;;;5041210;28;20014;-62
2023/08/27 02:15:22;;;;;;;17.43;12.37;;;;;;;;;;5037419;28;20009;-63
2023/08/27 02:17:47;;;;;;;22.20;14.07;;;;;;;;;;5048089;28;20088;-62
2023/08/27 02:20:12;;;;;;;18.80;13.57;;;;;;;;;;5041765;28;20017;-63
2023/08/27 02:22:37;;;;;;;22.60;13.40;;;;;;;;;;5040819;28;20024;-63
2023/08/27 02:25:03;;;;;;;23.10;14.60;;;;;;;;;;5047650;28;20096;-62
2023/08/27 02:27:28;;;;;;;20.80;14.17;;;;;;;;;;5051678;28;20392;-62
2023/08/27 02:29:53;;;;;;;23.07;15.33;;;;;;;;;;5037440;28;20393;-62
2023/08/27 02:32:18;;;;;;;25.30;16.07;;;;;;;;;;5044311;28;20488;-63
2023/08/27 02:34:44;;;;;;;26.83;17.87;;;;;;;;;;5038011;28;20467;-62
2023/08/27 02:37:09;;;;;;;24.83;16.57;;;;;;;;;;5040681;28;20017;-62
2023/08/27 02:39:34;;;;;;;28.57;17.73;;;;;;;;;;5032828;28;20053;-62
2023/08/27 02:41:59;;;;;;;28.13;17.87;;;;;;;;;;5039333;28;20509;-63
2023/08/27 02:44:25;;;;;;;25.87;17.47;;;;;;;;;;5051560;28;20455;-62
2023/08/27 02:46:50;;;;;;;23.83;16.37;;;;;;;;;;5035762;28;20441;-63
2023/08/27 02:49:15;;;;;;;25.97;17.23;;;;;;;;;;5051194;28;20363;-62
2023/08/27 02:51:41;;;;;;;28.33;17.43;;;;;;;;;;5032287;28;20031;-63
2023/08/27 02:54:06;;;;;;;30.20;18.03;;;;;;;;;;5033817;28;20033;-64
2023/08/27 02:56:32;;;;;;;31.13;19.17;;;;;;;;;;5017348;28;20032;-62
2023/08/27 02:58:57;;;;;;;33.20;19.80;;;;;;;;;;5042382;28;20033;-63
2023/08/27 03:01:22;;;;;;;29.80;19.80;;;;;;;;;;5032336;28;20075;-63
2023/08/27 03:03:48;;;;;;;33.60;20.80;;;;;;;;;;5039221;28;20059;-63
2023/08/27 03:06:13;;;;;;;31.63;19.63;;;;;;;;;;5032443;28;20036;-63
2023/08/27 03:08:39;;;;;;;31.00;20.27;;;;;;;;;;5039627;28;20036;-63
2023/08/27 03:11:04;;;;;;;31.27;19.90;;;;;;;;;;5031756;28;20453;-62
2023/08/27 03:13:29;;;;;;;29.37;18.43;;;;;;;;;;5033337;28;20382;-63
2023/08/27 03:15:55;;;;;;;29.40;18.70;;;;;;;;;;5032011;28;20060;-62
2023/08/27 03:18:20;;;;;;;30.00;17.90;;;;;;;;;;5031724;28;20029;-63
2023/08/27 03:20:45;;;;;;;25.73;16.07;;;;;;;;;;5034942;28;20025;-63
2023/08/27 03:23:11;;;;;;;21.10;14.10;;;;;;;;;;5034007;28;20465;-63
2023/08/27 03:25:36;;;;;;;21.87;14.33;;;;;;;;;;5036494;28;20037;-62
2023/08/27 03:28:01;;;;;;;21.87;14.77;;;;;;;;;;5036537;28;20022;-63
2023/08/27 03:30:26;;;;;;;18.27;13.03;;;;;;;;;;5035085;28;20024;-63
2023/08/27 03:32:51;;;;;;;22.83;15.30;;;;;;;;;;5037367;28;20025;-63
2023/08/27 03:35:17;;;;;;;20.93;13.90;;;;;;;;;;5038304;28;20104;-63
2023/08/27 03:37:43;;;;;;;21.00;13.23;;;;;;;;;;5043755;28;20115;-63
2023/08/27 03:40:08;;;;;;;22.23;13.33;;;;;;;;;;5037896;28;20028;-63
2023/08/27 03:42:34;;;;;;;21.27;14.37;;;;;;;;;;5035613;28;20018;-62
2023/08/27 03:45:00;;;;;;;24.57;15.27;;;;;;;;;;5043745;28;20033;-63
2023/08/27 03:47:25;;;;;;;26.13;16.77;;;;;;;;;;5035200;28;20484;-63
2023/08/27 03:49:51;;;;;;;25.67;17.60;;;;;;;;;;5035356;28;20037;-62
2023/08/27 03:52:16;;;;;;;26.67;17.50;;;;;;;;;;5036568;28;20021;-63
2023/08/27 03:54:41;;;;;;;28.50;17.93;;;;;;;;;;5035559;28;20025;-62
2023/08/27 03:57:06;;;;;;;26.00;17.57;;;;;;;;;;5035175;28;20025;-62
2023/08/27 03:59:32;;;;;;;30.80;18.67;;;;;;;;;;5040293;28;20057;-62
2023/08/27 04:01:57;;;;;;;30.93;18.37;;;;;;;;;;5033989;28;20106;-63
2023/08/27 04:04:22;;;;;;;30.30;19.57;;;;;;;;;;5035226;28;20095;-63
2023/08/27 04:06:47;;;;;;;31.33;18.60;;;;;;;;;;5033188;28;20565;-62
2023/08/27 04:09:13;;;;;;;32.30;19.73;;;;;;;;;;5045719;28;20033;-63
2023/08/27 04:11:38;;;;;;;29.63;19.37;;;;;;;;;;5035473;28;20103;-63
2023/08/27 04:14:04;;;;;;;31.23;19.47;;;;;;;;;;5035572;28;20014;-63
2023/08/27 04:16:30;;;;;;;37.53;21.83;;;;;;;;;;5034698;28;20026;-63
2023/08/27 04:18:55;;;;;;;35.87;21.47;;;;;;;;;;5041978;28;20090;-63
2023/08/27 04:21:20;;;;;;;42.87;22.97;;;;;;;;;;5034070;28;20034;-63
2023/08/27 04:23:46;;;;;;;35.77;22.27;;;;;;;;;;5035419;28;20030;-63
2023/08/27 04:26:11;;;;;;;40.50;22.73;;;;;;;;;;5035118;28;20043;-63
2023/08/27 04:28:38;;;;;;;39.77;22.23;;;;;;;;;;5034583;28;20112;-63
2023/08/27 04:31:03;;;;;;;41.27;23.80;;;;;;;;;;5036477;28;20227;-62
2023/08/27 04:33:28;;;;;;;41.93;23.50;;;;;;;;;;5033282;28;20044;-62
2023/08/27 04:35:54;;;;;;;42.90;23.67;;;;;;;;;;5036475;28;20029;-63
2023/08/27 04:38:19;;;;;;;39.83;24.50;;;;;;;;;;5036407;28;20033;-63
2023/08/27 04:40:51;;;;;;;41.27;23.73;;;;;;;;;;5038726;28;20065;-63
2023/08/27 04:43:16;;;;;;;45.10;22.97;;;;;;;;;;5030200;28;20022;-63
2023/08/27 04:45:42;;;;;;;38.87;24.37;;;;;;;;;;5034845;28;20028;-64
2023/08/27 04:48:08;;;;;;;45.87;25.03;;;;;;;;;;5034061;28;20022;-63
2023/08/27 04:50:34;;;;;;;42.63;25.03;;;;;;;;;;5034140;28;20459;-64
2023/08/27 04:52:59;;;;;;;42.17;24.57;;;;;;;;;;5034981;28;20036;-62
2023/08/27 04:55:24;;;;;;;44.03;24.53;;;;;;;;;;5033886;28;20543;-67
2023/08/27 04:57:50;;;;;;;41.53;25.17;;;;;;;;;;5034268;28;20025;-66
2023/08/27 05:00:20;;;;;;;39.63;24.33;;;;;;;;;;5035419;28;20027;-67
2023/08/27 05:02:46;;;;;;;42.97;25.20;;;;;;;;;;5034208;28;20529;-67
2023/08/27 05:05:11;;;;;;;42.03;24.90;;;;;;;;;;5035500;28;20131;-66
2023/08/27 05:07:37;;;;;;;41.23;23.93;;;;;;;;;;5035585;28;20035;-67
2023/08/27 05:10:02;;;;;;;37.57;23.03;;;;;;;;;;5033369;28;20067;-66
2023/08/27 05:12:27;;;;;;;37.60;22.80;;;;;;;;;;5035839;28;20025;-67
2023/08/27 05:14:53;;;;;;;35.87;22.57;;;;;;;;;;5034688;28;20385;-66
2023/08/27 05:17:18;;;;;;;34.07;22.07;;;;;;;;;;5033415;28;20531;-67
2023/08/27 05:19:43;;;;;;;34.03;21.57;;;;;;;;;;5037689;28;20504;-66
2023/08/27 05:22:09;;;;;;;33.07;21.80;;;;;;;;;;5038009;28;20022;-66
2023/08/27 05:24:34;;;;;;;32.90;21.73;;;;;;;;;;5031982;28;20440;-66
2023/08/27 05:27:00;;;;;;;33.90;22.00;;;;;;;;;;5045490;28;20009;-67
2023/08/27 05:29:25;;;;;;;34.43;23.07;;;;;;;;;;5036910;28;20964;-66
2023/08/27 05:31:50;;;;;;;33.47;22.13;;;;;;;;;;5033778;28;20543;-66
2023/08/27 05:34:15;;;;;;;32.97;20.83;;;;;;;;;;5034283;28;20501;-66
2023/08/27 05:36:41;;;;;;;31.43;20.43;;;;;;;;;;5033823;28;20512;-66
2023/08/27 05:39:06;;;;;;;30.77;19.90;;;;;;;;;;5033839;28;20155;-66
2023/08/27 05:41:31;;;;;;;27.23;19.00;;;;;;;;;;5038114;28;20377;-66
2023/08/27 05:43:57;;;;;;;28.53;19.57;;;;;;;;;;5036659;28;20500;-66
2023/08/27 05:46:22;;;;;;;24.47;18.23;;;;;;;;;;5033427;28;20416;-66
2023/08/27 05:48:47;;;;;;;24.30;17.00;;;;;;;;;;5034560;28;20029;-66
2023/08/27 05:51:12;;;;;;;22.83;16.97;;;;;;;;;;5033268;28;20016;-66
2023/08/27 05:53:38;;;;;;;24.03;15.83;;;;;;;;;;5034017;28;20033;-65
2023/08/27 05:56:03;;;;;;;19.27;13.80;;;;;;;;;;5034033;28;20018;-65
2023/08/27 05:58:29;;;;;;;15.07;11.73;;;;;;;;;;5035868;28;20380;-64
2023/08/27 06:00:54;;;;;;;12.00;9.50;;;;;;;;;;5033813;28;20036;-65
2023/08/27 06:03:20;;;;;;;14.45;9.65;;;;;;;;;;5037244;28;20104;-65
2023/08/27 06:05:45;;;;;;;11.48;8.73;;;;;;;;;;5033437;28;20021;-61
2023/08/27 06:08:10;;;;;;;11.38;8.93;;;;;;;;;;5032685;28;20197;-60
2023/08/27 06:10:35;;;;;;;10.82;7.93;;;;;;;;;;5032742;28;20040;-59
2023/08/27 06:13:01;;;;;;;9.20;7.30;;;;;;;;;;5037098;28;20021;-59
2023/08/27 06:15:29;;;;;;;13.93;8.98;;;;;;;;;;5046904;28;20477;-58
2023/08/27 06:17:54;;;;;;;12.77;8.25;;;;;;;;;;5031686;28;20021;-59
2023/08/27 06:20:19;;;;;;;8.32;6.40;;;;;;;;;;5033399;28;20035;-59
2023/08/27 06:22:45;;;;;;;9.25;6.00;;;;;;;;;;5033248;28;20032;-59
2023/08/27 06:25:11;;;;;;;6.80;5.15;;;;;;;;;;5039371;28;20389;-60
2023/08/27 06:27:36;;;;;;;8.43;5.38;;;;;;;;;;5031607;28;20017;-59
2023/08/27 06:30:01;;;;;;;7.22;5.03;;;;;;;;;;5032721;28;20331;-60
2023/08/27 06:32:27;;;;;;;6.45;5.13;;;;;;;;;;5047096;28;20116;-61
2023/08/27 06:34:54;;;;;;;7.72;5.30;;;;;;;;;;5032963;28;20072;-61
2023/08/27 06:37:19;;;;;;;7.20;5.32;;;;;;;;;;5032960;28;20477;-61
2023/08/27 06:39:44;;;;;;;8.23;5.13;;;;;;;;;;5032572;28;20064;-59
2023/08/27 06:42:09;;;;;;;18.08;5.75;;;;;;;;;;5032244;28;20040;-59
2023/08/27 06:44:35;;;;;;;10.57;6.30;;;;;;;;;;5031527;28;20447;-59
2023/08/27 06:47:00;;;;;;;7.78;5.22;;;;;;;;;;5031867;28;20025;-59
2023/08/27 06:49:25;;;;;;;7.88;4.60;;;;;;;;;;5032747;28;20037;-59
2023/08/27 06:51:50;;;;;;;5.47;4.00;;;;;;;;;;5034464;28;20028;-59
2023/08/27 06:54:16;;;;;;;5.53;4.20;;;;;;;;;;5032493;28;20381;-60
2023/08/27 06:56:41;;;;;;;7.80;4.47;;;;;;;;;;5031770;28;20391;-59
2023/08/27 06:59:06;;;;;;;6.55;4.40;;;;;;;;;;5031281;28;20147;-59
2023/08/27 07:01:31;;;;;;;6.68;3.90;;;;;;;;;;5031907;28;20041;-59
2023/08/27 07:03:58;;;;;;;7.50;3.97;;;;;;;;;;5032337;28;20091;-58
2023/08/27 07:06:23;;;;;;;6.25;4.07;;;;;;;;;;5032034;28;20079;-59
2023/08/27 07:08:49;;;;;;;6.45;4.10;;;;;;;;;;5031829;28;20029;-60
2023/08/27 07:11:16;;;;;;;5.97;3.90;;;;;;;;;;5014498;28;20010;-59
2023/08/27 07:13:41;;;;;;;5.93;4.20;;;;;;;;;;5032589;28;20508;-59
2023/08/27 07:16:07;;;;;;;6.00;4.05;;;;;;;;;;5032528;28;20088;-64
2023/08/27 07:18:32;;;;;;;6.43;3.95;;;;;;;;;;5032456;28;20056;-64
2023/08/27 07:20:57;;;;;;;6.40;3.60;;;;;;;;;;5042018;28;20032;-64
2023/08/27 07:23:22;;;;;;;5.75;3.63;;;;;;;;;;5037710;28;20022;-64
2023/08/27 07:25:48;;;;;;;5.20;3.53;;;;;;;;;;5033175;28;20033;-64
2023/08/27 07:28:13;;;;;;;5.68;3.30;;;;;;;;;;5035078;28;20025;-64
2023/08/27 07:30:38;;;;;;;7.22;3.50;;;;;;;;;;5038513;28;20079;-64
2023/08/27 07:33:06;;;;;;;5.35;3.10;;;;;;;;;;5034771;28;20373;-64
2023/08/27 07:35:31;;;;;;;6.20;3.00;;;;;;;;;;5046802;28;20478;-64
2023/08/27 07:37:56;;;;;;;6.10;3.38;;;;;;;;;;5031492;28;20072;-64
2023/08/27 07:40:22;;;;;;;6.15;3.42;;;;;;;;;;5043446;28;20032;-64
2023/08/27 07:42:47;;;;;;;8.30;4.00;;;;;;;;;;5033524;28;20025;-64
2023/08/27 07:45:12;;;;;;;6.82;4.03;;;;;;;;;;5034268;28;20401;-65
2023/08/27 07:47:38;;;;;;;7.00;4.38;;;;;;;;;;5034435;28;20025;-64
2023/08/27 07:50:04;;;;;;;6.53;3.97;;;;;;;;;;5035189;28;20020;-63
2023/08/27 07:52:29;;;;;;;7.32;4.05;;;;;;;;;;5035754;28;20500;-63
2023/08/27 07:54:54;;;;;;;7.53;3.45;;;;;;;;;;5032169;28;20346;-64
2023/08/27 07:57:19;;;;;;;8.55;3.92;;;;;;;;;;5031918;28;20088;-64
2023/08/27 07:59:45;;;;;;;6.90;3.80;;;;;;;;;;5030872;28;20060;-64
2023/08/27 08:02:10;;;;;;;6.03;3.97;;;;;;;;;;5032880;28;20351;-64
2023/08/27 08:04:36;;;;;;;9.75;4.30;;;;;;;;;;5034838;28;20102;-64
2023/08/27 08:07:01;;;;;;;5.72;3.92;;;;;;;;;;5049606;28;20401;-64
2023/08/27 08:09:26;;;;;;;7.32;3.92;;;;;;;;;;5045963;28;20397;-63
2023/08/27 08:11:51;;;;;;;6.63;3.10;;;;;;;;;;5034352;28;20014;-64
2023/08/27 08:14:17;;;;;;;5.05;3.08;;;;;;;;;;5031316;28;20350;-64
2023/08/27 08:16:42;;;;;;;5.55;3.38;;;;;;;;;;5035617;28;20021;-64
2023/08/27 08:19:07;;;;;;;7.75;3.67;;;;;;;;;;5034247;28;20030;-63
2023/08/27 08:21:32;;;;;;;8.25;3.95;;;;;;;;;;5035708;28;20040;-64
2023/08/27 08:23:58;;;;;;;5.70;3.67;;;;;;;;;;5035449;28;20378;-64
2023/08/27 08:26:23;;;;;;;6.32;4.30;;;;;;;;;;5036329;28;20477;-64
2023/08/27 08:28:48;;;;;;;6.82;4.13;;;;;;;;;;5034684;28;20088;-64
2023/08/27 08:31:13;;;;;;;8.75;4.55;;;;;;;;;;5034914;28;20018;-65
2023/08/27 08:33:39;;;;;;;5.63;4.07;;;;;;;;;;5035001;28;20028;-65
2023/08/27 08:36:05;;;;;;;5.85;2.72;;;;;;;;;;5038506;28;20032;-66
2023/08/27 08:38:30;;;;;;;6.22;3.03;;;;;;;;;;5038887;28;20045;-65
2023/08/27 08:40:57;;;;;;;4.20;2.30;;;;;;;;;;5035127;28;20107;-65
2023/08/27 08:43:37;;;;;;;4.70;2.30;;;;;;;;;;5034139;28;20555;-66
2023/08/27 08:46:03;;;;;;;4.70;2.40;;;;;;;;;;5032451;28;20052;-65
2023/08/27 08:48:30;;;;;;;3.10;1.90;;;;;;;;;;5034503;28;20083;-66
2023/08/27 08:50:56;;;;;;;4.95;2.30;;;;;;;;;;5034916;28;20022;-65
2023/08/27 08:53:23;;;;;;;5.93;1.95;;;;;;;;;;5034664;28;20454;-66
2023/08/27 08:55:51;;;;;;;3.90;2.00;;;;;;;;;;5034368;28;20105;-65
2023/08/27 08:58:18;;;;;;;4.88;2.85;;;;;;;;;;5038147;28;20068;-66
2023/08/27 09:00:44;;;;;;;4.53;2.15;;;;;;;;;;5042955;28;20151;-65
2023/08/27 09:03:10;;;;;;;4.03;2.33;;;;;;;;;;5039461;28;20116;-66
2023/08/27 09:05:37;;;;;;;4.63;2.55;;;;;;;;;;5034573;28;20021;-65
2023/08/27 09:08:03;;;;;;;4.72;2.38;;;;;;;;;;5037618;28;20025;-67
2023/08/27 09:10:29;;;;;;;4.75;2.10;;;;;;;;;;5037816;28;20028;-67
2023/08/27 09:12:56;;;;;;;15.75;3.20;;;;;;;;;;5041826;28;20022;-68
2023/08/27 09:15:21;;;;;;;10.32;3.15;;;;;;;;;;5038186;28;20024;-68
2023/08/27 09:17:47;;;;;;;7.07;2.90;;;;;;;;;;5036895;28;20462;-69
2023/08/27 09:20:12;;;;;;;5.85;3.42;;;;;;;;;;5035448;28;20386;-70
2023/08/27 09:22:38;;;;;;;6.13;3.22;;;;;;;;;;5032242;28;20036;-68
2023/08/27 09:25:04;;;;;;;5.40;3.30;;;;;;;;;;5034919;28;20596;-68
2023/08/27 09:27:30;;;;;;;8.18;3.58;;;;;;;;;;5039380;28;20033;-70
2023/08/27 09:29:59;;;;;;;14.13;4.68;;;;;;;;;;5033763;28;20385;-69
2023/08/27 09:32:24;;;;;;;9.18;4.07;;;;;;;;;;5038294;28;20044;-69
2023/08/27 09:34:56;;;;;;;6.47;3.30;;;;;;;;;;5038473;28;20013;-69
2023/08/27 09:37:21;;;;;;;6.80;3.92;;;;;;;;;;5035565;28;20083;-63
2023/08/27 09:39:48;;;;;;;5.47;3.38;;;;;;;;;;5039061;28;20021;-65
2023/08/27 09:42:14;;;;;;;7.93;4.38;;;;;;;;;;5038205;28;20020;-63
2023/08/27 09:44:47;;;;;;;6.93;3.97;;;;;;;;;;5036989;28;20021;-63
2023/08/27 09:47:12;;;;;;;5.50;2.97;;;;;;;;;;5036796;28;20417;-62
2023/08/27 09:49:41;;;;;;;5.28;3.58;;;;;;;;;;5037725;28;20119;-62
2023/08/27 09:52:07;;;;;;;4.82;3.10;;;;;;;;;;5036125;28;20397;-62
2023/08/27 09:54:32;;;;;;;5.43;2.78;;;;;;;;;;5035727;28;20021;-63
2023/08/27 09:56:59;;;;;;;5.28;2.92;;;;;;;;;;5037893;28;20017;-62
2023/08/27 09:59:25;;;;;;;6.07;2.72;;;;;;;;;;5036318;28;20382;-62
2023/08/27 10:01:50;;;;;;;4.75;2.20;;;;;;;;;;5039441;28;20025;-63
2023/08/27 10:04:17;;;;;;;5.13;2.50;;;;;;;;;;5033132;28;20133;-62
2023/08/27 10:06:42;;;;;;;5.47;2.20;;;;;;;;;;5034084;28;20044;-62
2023/08/27 10:09:07;;;;;;;4.40;1.80;;;;;;;;;;5033402;28;20017;-62
2023/08/27 10:11:36;;;;;;;4.80;1.80;;;;;;;;;;5036657;28;20029;-63
2023/08/27 10:14:03;;;;;;;4.05;1.80;;;;;;;;;;5038761;28;20028;-62
2023/08/27 10:16:29;;;;;;;3.28;1.80;;;;;;;;;;5033879;28;20017;-63
2023/08/27 10:18:55;;;;;;;4.07;1.50;;;;;;;;;;5035552;28;20788;-62
2023/08/27 10:21:20;;;;;;;4.05;1.60;;;;;;;;;;5033823;28;20017;-63
2023/08/27 10:23:46;;;;;;;3.58;1.80;;;;;;;;;;5032723;28;20052;-63
2023/08/27 10:26:13;;;;;;;5.00;1.73;;;;;;;;;;5032972;28;20017;-63
2023/08/27 10:28:39;;;;;;;4.75;2.17;;;;;;;;;;5029155;28;20049;-63
2023/08/27 10:31:05;;;;;;;3.65;1.60;;;;;;;;;;5033000;28;20351;-62
2023/08/27 10:33:30;;;;;;;4.88;1.60;;;;;;;;;;5033674;28;20026;-64
2023/08/27 10:35:58;;;;;;;3.65;1.80;;;;;;;;;;5034980;28;20092;-64
2023/08/27 10:38:25;;;;;;;4.10;2.03;;;;;;;;;;5040948;28;20043;-64
2023/08/27 10:40:51;;;;;;;3.72;1.90;;;;;;;;;;5042495;28;20108;-64
2023/08/27 10:43:17;;;;;;;3.92;1.90;;;;;;;;;;5040567;28;20132;-63
2023/08/27 10:45:43;;;;;;;5.32;1.88;;;;;;;;;;5041451;28;20482;-63
2023/08/27 10:48:21;;;;;;;4.45;2.10;;;;;;;;;;5032821;28;20100;-64
2023/08/27 10:50:49;;;;;;;3.70;1.80;;;;;;;;;;5034232;28;20017;-63
2023/08/27 10:53:15;;;;;;;5.80;1.90;;;;;;;;;;5030975;28;20028;-63
2023/08/27 10:55:43;;;;;;;4.55;1.98;;;;;;;;;;5034785;28;20136;-63
2023/08/27 10:58:18;;;;;;;4.20;1.95;;;;;;;;;;5038124;28;20412;-62
2023/08/27 11:01:04;;;;;;;3.70;2.30;;;;;;;;;;5028089;28;20488;-62
2023/08/27 11:03:48;;;;;;;3.70;2.20;;;;;;;;;;5030674;28;20045;-62
2023/08/27 11:06:14;;;;;;;4.65;2.30;;;;;;;;;;5031393;28;20013;-62
2023/08/27 11:08:42;;;;;;;4.05;2.50;;;;;;;;;;5035419;28;20025;-62
2023/08/27 11:11:13;;;;;;;3.45;2.30;;;;;;;;;;5031525;28;20097;-62
2023/08/27 11:13:41;;;;;;;4.20;2.40;;;;;;;;;;5030418;28;20021;-62
2023/08/27 11:16:11;;;;;;;4.65;2.60;;;;;;;;;;5031301;28;20021;-62
2023/08/27 11:19:02;;;;;;;5.30;2.35;;;;;;;;;;5030496;28;20434;-61
2023/08/27 11:21:28;;;;;;;4.72;2.47;;;;;;;;;;5028258;28;20037;-62
2023/08/27 11:24:12;;;;;;;5.32;2.80;;;;;;;;;;5038236;28;20035;-62
2023/08/27 11:26:41;;;;;;;4.80;2.40;;;;;;;;;;5034694;28;20025;-62
2023/08/27 11:29:10;;;;;;;5.22;2.80;;;;;;;;;;5030637;28;20520;-63
2023/08/27 11:31:37;;;;;;;4.43;2.75;;;;;;;;;;5029869;28;20547;-63
2023/08/27 11:34:04;;;;;;;6.50;3.05;;;;;;;;;;5031637;28;20032;-62
2023/08/27 11:36:30;;;;;;;5.18;2.70;;;;;;;;;;5030842;28;20513;-62
2023/08/27 11:38:58;;;;;;;4.32;2.63;;;;;;;;;;5033745;28;20059;-62
2023/08/27 11:41:23;;;;;;;4.55;2.22;;;;;;;;;;5033794;28;20025;-65
2023/08/27 11:43:53;;;;;;;4.15;2.15;;;;;;;;;;5039467;28;20029;-63
2023/08/27 11:46:24;;;;;;;4.85;2.33;;;;;;;;;;5038587;28;20462;-63
2023/08/27 11:48:50;;;;;;;4.63;2.50;;;;;;;;;;5033054;28;20077;-63
2023/08/27 11:51:15;;;;;;;3.20;2.03;;;;;;;;;;5035372;28;20449;-62
2023/08/27 11:53:41;;;;;;;4.35;2.70;;;;;;;;;;5037082;28;20021;-62
2023/08/27 11:56:06;;;;;;;3.80;2.20;;;;;;;;;;5036784;28;20066;-62
2023/08/27 11:58:31;;;;;;;3.95;2.35;;;;;;;;;;5038422;28;20230;-66
2023/08/27 12:00:57;;;;;;;3.60;2.20;;;;;;;;;;5033050;28;20032;-67
2023/08/27 12:03:23;;;;;;;4.35;2.00;;;;;;;;;;5035613;28;20060;-67
2023/08/27 12:05:49;;;;;;;4.63;2.20;;;;;;;;;;5054290;28;20036;-67
2023/08/27 12:08:15;;;;;;;3.92;2.17;;;;;;;;;;5054286;28;20028;-67
2023/08/27 12:10:44;;;;;;;4.57;2.03;;;;;;;;;;5054057;28;20016;-67
2023/08/27 12:13:09;;;;;;;5.63;1.88;;;;;;;;;;5054082;28;20017;-67
2023/08/27 12:15:35;;;;;;;3.17;1.27;;;;;;;;;;5035346;28;20020;-67
2023/08/27 12:18:01;;;;;;;3.08;1.30;;;;;;;;;;5035344;28;20025;-69
2023/08/27 12:20:33;;;;;;;3.45;1.35;;;;;;;;;;5035405;28;20014;-66
2023/08/27 12:23:08;;;;;;;2.65;1.20;;;;;;;;;;5035400;28;20314;-67
2023/08/27 12:25:51;;;;;;;3.33;1.20;;;;;;;;;;5032756;28;20371;-66
2023/08/27 12:28:17;;;;;;;2.70;1.20;;;;;;;;;;5033315;28;20053;-67
2023/08/27 12:30:46;;;;;;;2.85;1.40;;;;;;;;;;5035378;28;20099;-67
2023/08/27 12:33:11;;;;;;;3.75;1.30;;;;;;;;;;5035097;28;20037;-66
2023/08/27 12:35:37;;;;;;;3.80;1.30;;;;;;;;;;5035261;28;20095;-66
2023/08/27 12:38:02;;;;;;;2.60;1.13;;;;;;;;;;5034944;28;20021;-67
2023/08/27 12:40:28;;;;;;;2.85;1.10;;;;;;;;;;5035147;28;20009;-67
2023/08/27 12:42:53;;;;;;;3.33;1.40;;;;;;;;;;5035089;28;20079;-66
2023/08/27 12:45:19;;;;;;;3.97;1.13;;;;;;;;;;5035075;28;20025;-67
2023/08/27 12:47:45;;;;;;;3.58;1.10;;;;;;;;;;5035011;28;20079;-66
2023/08/27 12:50:10;;;;;;;2.08;0.93;;;;;;;;;;5034811;28;20618;-67
2023/08/27 12:52:35;;;;;;;2.72;1.02;;;;;;;;;;5034264;28;20020;-67
2023/08/27 12:55:02;;;;;;;2.92;1.10;;;;;;;;;;5034654;28;20014;-68
2023/08/27 12:57:27;;;;;;;2.70;1.20;;;;;;;;;;5033809;28;20074;-67
2023/08/27 12:59:53;;;;;;;4.32;1.20;;;;;;;;;;5053098;28;20388;-67
2023/08/27 13:02:19;;;;;;;2.92;1.10;;;;;;;;;;5053126;28;20029;-68
2023/08/27 13:04:44;;;;;;;4.43;1.00;;;;;;;;;;5052999;28;20111;-67
2023/08/27 13:07:09;;;;;;;2.83;0.93;;;;;;;;;;5052962;28;20021;-67
2023/08/27 13:09:35;;;;;;;3.83;0.90;;;;;;;;;;5053004;28;20381;-67
2023/08/27 13:12:00;;;;;;;2.72;0.80;;;;;;;;;;5053462;28;20016;-68
2023/08/27 13:14:25;;;;;;;4.38;1.15;;;;;;;;;;5053104;28;20517;-68
2023/08/27 13:16:50;;;;;;;3.78;1.10;;;;;;;;;;5047853;28;20432;-69
2023/08/27 13:19:16;;;;;;;2.53;1.00;;;;;;;;;;5053137;28;20017;-67
2023/08/27 13:21:44;;;;;;;2.97;1.20;;;;;;;;;;5041271;28;20033;-68
2023/08/27 13:24:10;;;;;;;3.80;1.30;;;;;;;;;;5034039;28;20021;-68
2023/08/27 13:26:35;;;;;;;3.33;1.40;;;;;;;;;;5033583;28;20064;-68
2023/08/27 13:29:00;;;;;;;3.72;1.20;;;;;;;;;;5033989;28;20485;-68
2023/08/27 13:31:26;;;;;;;3.78;1.15;;;;;;;;;;5033950;28;20461;-67
2023/08/27 13:33:51;;;;;;;4.80;1.33;;;;;;;;;;5033879;28;20420;-67
2023/08/27 13:36:17;;;;;;;2.03;0.93;;;;;;;;;;5032855;28;20010;-67
2023/08/27 13:38:42;;;;;;;2.88;1.23;;;;;;;;;;5034089;28;20076;-68
2023/08/27 13:41:07;;;;;;;4.70;1.27;;;;;;;;;;5033826;28;20021;-68
2023/08/27 13:43:33;;;;;;;4.80;1.35;;;;;;;;;;5033666;28;20020;-69
2023/08/27 13:45:58;;;;;;;4.22;1.10;;;;;;;;;;5033786;28;20029;-69
2023/08/27 13:48:24;;;;;;;2.38;1.10;;;;;;;;;;5033512;28;20527;-69
2023/08/27 13:50:49;;;;;;;3.28;1.10;;;;;;;;;;5033775;28;20113;-69
2023/08/27 13:53:15;;;;;;;5.03;1.30;;;;;;;;;;5031219;28;20025;-69
2023/08/27 13:55:40;;;;;;;4.18;1.50;;;;;;;;;;5033343;28;20478;-69
2023/08/27 13:58:05;;;;;;;5.28;1.67;;;;;;;;;;5033374;28;20017;-70
2023/08/27 14:00:33;;;;;;;3.63;1.50;;;;;;;;;;5032988;28;20082;-70
2023/08/27 14:02:58;;;;;;;5.82;2.05;;;;;;;;;;5033175;28;20021;-70
2023/08/27 14:05:24;;;;;;;3.83;1.60;;;;;;;;;;5033110;28;20184;-70
2023/08/27 14:07:49;;;;;;;3.65;1.48;;;;;;;;;;5031800;28;20029;-71
2023/08/27 14:10:14;;;;;;;4.28;1.50;;;;;;;;;;5033001;28;20021;-70
2023/08/27 14:12:39;;;;;;;3.60;1.50;;;;;;;;;;5033025;28;20010;-70
2023/08/27 14:15:05;;;;;;;3.25;1.55;;;;;;;;;;5038022;28;20382;-70
2023/08/27 14:17:30;;;;;;;5.63;2.72;;;;;;;;;;5035165;28;20029;-69
2023/08/27 14:19:56;;;;;;;2.90;1.10;;;;;;;;;;5024311;28;20084;-66
2023/08/27 14:22:21;;;;;;;5.65;1.10;;;;;;;;;;5011783;28;20101;-70
2023/08/27 14:24:46;;;;;;;7.43;1.20;;;;;;;;;;5018019;28;20350;-65
2023/08/27 14:27:11;;;;;;;7.85;1.55;;;;;;;;;;5012979;28;20289;-67
2023/08/27 14:29:37;;;;;;;8.85;1.92;;;;;;;;;;5014275;28;20065;-68